sensor_id;sensor_type;location;lat;lon;timestamp;P1;durP1;ratioP1;P2;durP2;ratioP2
37657;SDS011;23500;53.268;8.308;2022-12-10T00:01:07;9.57;;;6.93;;
37657;SDS011;23500;53.268;8.308;2022-12-10T00:03:34;8.30;;;7.10;;
37657;SDS011;23500;53.268;8.308;2022-12-10T00:06:01;8.67;;;7.17;;
37657;SDS011;23500;53.268;8.308;2022-12-10T00:08:28;8.27;;;7.43;;
37657;SDS011;23500;53.268;8.308;2022-12-10T00:10:54;8.40;;;7.13;;
37657;SDS011;23500;53.268;8.308;2022-12-10T00:13:20;9.27;;;7.43;;
37657;SDS011;23500;53.268;8.308;2022-12-10T00:15:46;8.50;;;6.67;;
37657;SDS011;23500;53.268;8.308;2022-12-10T00:18:11;8.07;;;7.17;;
37657;SDS011;23500;53.268;8.308;2022-12-10T00:20:37;8.07;;;6.63;;
37657;SDS011;23500;53.268;8.308;2022-12-10T00:23:03;8.13;;;6.93;;
37657;SDS011;23500;53.268;8.308;2022-12-10T00:25:29;8.57;;;7.43;;
37657;SDS011;23500;53.268;8.308;2022-12-10T00:27:56;10.20;;;7.57;;
37657;SDS011;23500;53.268;8.308;2022-12-10T00:30:21;8.73;;;7.57;;
37657;SDS011;23500;53.268;8.308;2022-12-10T00:32:47;10.03;;;7.33;;
37657;SDS011;23500;53.268;8.308;2022-12-10T00:35:13;7.97;;;7.17;;
37657;SDS011;23500;53.268;8.308;2022-12-10T00:37:38;8.10;;;6.83;;
37657;SDS011;23500;53.268;8.308;2022-12-10T00:40:04;9.77;;;6.93;;
37657;SDS011;23500;53.268;8.308;2022-12-10T00:42:30;9.03;;;6.80;;
37657;SDS011;23500;53.268;8.308;2022-12-10T00:44:56;8.00;;;7.07;;
37657;SDS011;23500;53.268;8.308;2022-12-10T00:47:21;8.83;;;7.30;;
37657;SDS011;23500;53.268;8.308;2022-12-10T00:49:47;8.83;;;7.30;;
37657;SDS011;23500;53.268;8.308;2022-12-10T00:52:13;8.10;;;6.77;;
37657;SDS011;23500;53.268;8.308;2022-12-10T00:54:38;8.50;;;7.13;;
37657;SDS011;23500;53.268;8.308;2022-12-10T00:57:04;8.43;;;7.07;;
37657;SDS011;23500;53.268;8.308;2022-12-10T00:59:29;9.30;;;7.20;;
37657;SDS011;23500;53.268;8.308;2022-12-10T01:01:55;7.63;;;6.87;;
37657;SDS011;23500;53.268;8.308;2022-12-10T01:04:21;8.23;;;7.27;;
37657;SDS011;23500;53.268;8.308;2022-12-10T01:06:48;9.17;;;7.23;;
37657;SDS011;23500;53.268;8.308;2022-12-10T01:09:16;8.37;;;7.10;;
37657;SDS011;23500;53.268;8.308;2022-12-10T01:11:47;7.87;;;6.77;;
37657;SDS011;23500;53.268;8.308;2022-12-10T01:14:15;9.60;;;7.40;;
37657;SDS011;23500;53.268;8.308;2022-12-10T01:16:44;8.60;;;6.87;;
37657;SDS011;23500;53.268;8.308;2022-12-10T01:19:11;8.60;;;7.10;;
37657;SDS011;23500;53.268;8.308;2022-12-10T01:21:36;8.13;;;7.27;;
37657;SDS011;23500;53.268;8.308;2022-12-10T01:24:02;7.87;;;6.83;;
37657;SDS011;23500;53.268;8.308;2022-12-10T01:26:30;8.97;;;6.73;;
37657;SDS011;23500;53.268;8.308;2022-12-10T01:28:57;8.80;;;6.37;;
37657;SDS011;23500;53.268;8.308;2022-12-10T01:31:25;7.03;;;5.77;;
37657;SDS011;23500;53.268;8.308;2022-12-10T01:33:55;8.67;;;6.10;;
37657;SDS011;23500;53.268;8.308;2022-12-10T01:36:27;6.57;;;5.93;;
37657;SDS011;23500;53.268;8.308;2022-12-10T01:38:54;5.87;;;5.23;;
37657;SDS011;23500;53.268;8.308;2022-12-10T01:41:24;5.90;;;5.30;;
37657;SDS011;23500;53.268;8.308;2022-12-10T01:46:27;6.28;;;5.63;;
37657;SDS011;23500;53.268;8.308;2022-12-10T01:48:55;5.88;;;5.38;;
37657;SDS011;23500;53.268;8.308;2022-12-10T01:51:23;5.78;;;5.18;;
37657;SDS011;23500;53.268;8.308;2022-12-10T01:53:50;5.75;;;5.15;;
37657;SDS011;23500;53.268;8.308;2022-12-10T01:56:17;6.10;;;5.43;;
37657;SDS011;23500;53.268;8.308;2022-12-10T01:58:44;5.78;;;5.28;;
37657;SDS011;23500;53.268;8.308;2022-12-10T02:01:19;6.18;;;5.57;;
37657;SDS011;23500;53.268;8.308;2022-12-10T02:22:35;6.63;;;5.93;;
37657;SDS011;23500;53.268;8.308;2022-12-10T02:25:22;7.00;;;6.30;;
37657;SDS011;23500;53.268;8.308;2022-12-10T02:28:36;5.85;;;5.32;;
37657;SDS011;23500;53.268;8.308;2022-12-10T02:30:56;6.38;;;5.78;;
37657;SDS011;23500;53.268;8.308;2022-12-10T02:33:24;7.10;;;6.35;;
37657;SDS011;23500;53.268;8.308;2022-12-10T02:35:53;6.68;;;6.07;;
37657;SDS011;23500;53.268;8.308;2022-12-10T02:38:23;5.63;;;5.13;;
37657;SDS011;23500;53.268;8.308;2022-12-10T02:40:57;7.13;;;6.27;;
37657;SDS011;23500;53.268;8.308;2022-12-10T02:43:27;6.50;;;5.90;;
37657;SDS011;23500;53.268;8.308;2022-12-10T02:45:54;6.87;;;6.10;;
37657;SDS011;23500;53.268;8.308;2022-12-10T02:48:21;7.47;;;6.67;;
37657;SDS011;23500;53.268;8.308;2022-12-10T02:50:48;6.17;;;5.57;;
37657;SDS011;23500;53.268;8.308;2022-12-10T02:53:13;6.80;;;6.10;;
37657;SDS011;23500;53.268;8.308;2022-12-10T02:55:58;6.90;;;6.20;;
37657;SDS011;23500;53.268;8.308;2022-12-10T02:58:36;6.90;;;6.03;;
37657;SDS011;23500;53.268;8.308;2022-12-10T03:03:44;6.50;;;5.87;;
37657;SDS011;23500;53.268;8.308;2022-12-10T03:06:20;8.13;;;6.83;;
37657;SDS011;23500;53.268;8.308;2022-12-10T03:09:00;6.73;;;5.80;;
37657;SDS011;23500;53.268;8.308;2022-12-10T03:11:30;6.00;;;5.40;;
37657;SDS011;23500;53.268;8.308;2022-12-10T03:14:00;6.38;;;5.78;;
37657;SDS011;23500;53.268;8.308;2022-12-10T03:16:36;8.33;;;6.23;;
37657;SDS011;23500;53.268;8.308;2022-12-10T03:19:11;6.33;;;5.63;;
37657;SDS011;23500;53.268;8.308;2022-12-10T03:21:40;6.77;;;5.90;;
37657;SDS011;23500;53.268;8.308;2022-12-10T03:24:09;6.07;;;5.47;;
37657;SDS011;23500;53.268;8.308;2022-12-10T03:26:36;6.67;;;5.97;;
37657;SDS011;23500;53.268;8.308;2022-12-10T03:29:05;6.67;;;6.00;;
37657;SDS011;23500;53.268;8.308;2022-12-10T03:31:35;6.73;;;5.60;;
37657;SDS011;23500;53.268;8.308;2022-12-10T03:34:02;7.07;;;6.10;;
37657;SDS011;23500;53.268;8.308;2022-12-10T03:36:28;7.33;;;6.50;;
37657;SDS011;23500;53.268;8.308;2022-12-10T03:38:55;6.97;;;5.90;;
37657;SDS011;23500;53.268;8.308;2022-12-10T03:41:22;7.40;;;6.40;;
37657;SDS011;23500;53.268;8.308;2022-12-10T03:43:51;6.83;;;6.13;;
37657;SDS011;23500;53.268;8.308;2022-12-10T03:46:18;7.30;;;6.13;;
37657;SDS011;23500;53.268;8.308;2022-12-10T03:48:44;7.40;;;6.00;;
37657;SDS011;23500;53.268;8.308;2022-12-10T03:51:09;6.20;;;5.60;;
37657;SDS011;23500;53.268;8.308;2022-12-10T03:53:35;6.73;;;5.77;;
37657;SDS011;23500;53.268;8.308;2022-12-10T03:56:01;6.90;;;6.20;;
37657;SDS011;23500;53.268;8.308;2022-12-10T03:58:26;6.77;;;6.07;;
37657;SDS011;23500;53.268;8.308;2022-12-10T04:00:52;7.33;;;6.63;;
37657;SDS011;23500;53.268;8.308;2022-12-10T04:03:18;6.90;;;6.10;;
37657;SDS011;23500;53.268;8.308;2022-12-10T04:05:43;6.77;;;6.07;;
37657;SDS011;23500;53.268;8.308;2022-12-10T04:08:09;7.13;;;6.10;;
37657;SDS011;23500;53.268;8.308;2022-12-10T04:10:35;6.43;;;5.77;;
37657;SDS011;23500;53.268;8.308;2022-12-10T04:13:02;6.70;;;6.00;;
37657;SDS011;23500;53.268;8.308;2022-12-10T04:15:47;6.73;;;6.03;;
37657;SDS011;23500;53.268;8.308;2022-12-10T04:18:31;6.70;;;6.03;;
37657;SDS011;23500;53.268;8.308;2022-12-10T04:20:56;6.17;;;5.57;;
37657;SDS011;23500;53.268;8.308;2022-12-10T04:23:40;6.73;;;5.60;;
37657;SDS011;23500;53.268;8.308;2022-12-10T04:26:24;6.80;;;6.10;;
37657;SDS011;23500;53.268;8.308;2022-12-10T04:29:08;7.00;;;6.30;;
37657;SDS011;23500;53.268;8.308;2022-12-10T04:31:34;6.33;;;5.73;;
37657;SDS011;23500;53.268;8.308;2022-12-10T04:34:00;6.63;;;5.93;;
37657;SDS011;23500;53.268;8.308;2022-12-10T04:36:26;6.93;;;6.23;;
37657;SDS011;23500;53.268;8.308;2022-12-10T04:38:51;7.03;;;6.13;;
37657;SDS011;23500;53.268;8.308;2022-12-10T04:41:17;7.97;;;5.73;;
37657;SDS011;23500;53.268;8.308;2022-12-10T04:43:42;6.43;;;5.70;;
37657;SDS011;23500;53.268;8.308;2022-12-10T04:46:08;7.27;;;6.20;;
37657;SDS011;23500;53.268;8.308;2022-12-10T04:48:35;6.73;;;6.03;;
37657;SDS011;23500;53.268;8.308;2022-12-10T04:51:00;6.60;;;5.90;;
37657;SDS011;23500;53.268;8.308;2022-12-10T04:53:26;7.00;;;5.87;;
37657;SDS011;23500;53.268;8.308;2022-12-10T04:55:52;7.23;;;6.23;;
37657;SDS011;23500;53.268;8.308;2022-12-10T04:58:17;7.07;;;6.20;;
37657;SDS011;23500;53.268;8.308;2022-12-10T05:00:43;6.23;;;5.63;;
37657;SDS011;23500;53.268;8.308;2022-12-10T05:03:09;7.03;;;6.33;;
37657;SDS011;23500;53.268;8.308;2022-12-10T05:05:35;6.50;;;5.80;;
37657;SDS011;23500;53.268;8.308;2022-12-10T05:08:01;6.00;;;5.40;;
37657;SDS011;23500;53.268;8.308;2022-12-10T05:10:26;8.07;;;6.43;;
37657;SDS011;23500;53.268;8.308;2022-12-10T05:12:52;6.43;;;5.57;;
37657;SDS011;23500;53.268;8.308;2022-12-10T05:15:18;7.23;;;6.50;;
37657;SDS011;23500;53.268;8.308;2022-12-10T05:17:43;6.37;;;5.70;;
37657;SDS011;23500;53.268;8.308;2022-12-10T05:20:09;7.30;;;6.60;;
37657;SDS011;23500;53.268;8.308;2022-12-10T05:22:35;6.20;;;5.60;;
37657;SDS011;23500;53.268;8.308;2022-12-10T05:25:19;6.27;;;5.57;;
37657;SDS011;23500;53.268;8.308;2022-12-10T05:27:45;6.53;;;5.83;;
37657;SDS011;23500;53.268;8.308;2022-12-10T05:30:11;6.80;;;5.63;;
37657;SDS011;23500;53.268;8.308;2022-12-10T05:32:37;6.30;;;5.70;;
37657;SDS011;23500;53.268;8.308;2022-12-10T05:35:03;6.60;;;6.00;;
37657;SDS011;23500;53.268;8.308;2022-12-10T05:37:29;6.60;;;5.90;;
37657;SDS011;23500;53.268;8.308;2022-12-10T05:39:55;6.83;;;5.83;;
37657;SDS011;23500;53.268;8.308;2022-12-10T05:42:20;6.43;;;5.60;;
37657;SDS011;23500;53.268;8.308;2022-12-10T05:44:46;6.00;;;5.40;;
37657;SDS011;23500;53.268;8.308;2022-12-10T05:47:11;6.57;;;5.60;;
37657;SDS011;23500;53.268;8.308;2022-12-10T05:49:37;7.53;;;6.27;;
37657;SDS011;23500;53.268;8.308;2022-12-10T05:52:03;6.50;;;5.83;;
37657;SDS011;23500;53.268;8.308;2022-12-10T05:54:28;6.90;;;6.10;;
37657;SDS011;23500;53.268;8.308;2022-12-10T05:56:54;6.83;;;6.00;;
37657;SDS011;23500;53.268;8.308;2022-12-10T05:59:20;6.50;;;5.87;;
37657;SDS011;23500;53.268;8.308;2022-12-10T06:01:45;6.70;;;6.00;;
37657;SDS011;23500;53.268;8.308;2022-12-10T06:04:11;6.60;;;5.53;;
37657;SDS011;23500;53.268;8.308;2022-12-10T06:06:37;7.47;;;6.30;;
37657;SDS011;23500;53.268;8.308;2022-12-10T06:09:05;6.73;;;5.67;;
37657;SDS011;23500;53.268;8.308;2022-12-10T06:11:32;7.17;;;6.43;;
37657;SDS011;23500;53.268;8.308;2022-12-10T06:13:58;6.67;;;5.97;;
37657;SDS011;23500;53.268;8.308;2022-12-10T06:16:24;6.03;;;5.43;;
37657;SDS011;23500;53.268;8.308;2022-12-10T06:18:51;6.70;;;6.00;;
37657;SDS011;23500;53.268;8.308;2022-12-10T06:21:18;5.73;;;5.13;;
37657;SDS011;23500;53.268;8.308;2022-12-10T06:23:45;5.50;;;5.00;;
37657;SDS011;23500;53.268;8.308;2022-12-10T06:26:12;6.13;;;5.53;;
37657;SDS011;23500;53.268;8.308;2022-12-10T06:28:44;6.47;;;5.77;;
37657;SDS011;23500;53.268;8.308;2022-12-10T06:31:10;6.67;;;5.53;;
37657;SDS011;23500;53.268;8.308;2022-12-10T06:33:36;7.10;;;5.90;;
37657;SDS011;23500;53.268;8.308;2022-12-10T06:36:05;6.53;;;5.83;;
37657;SDS011;23500;53.268;8.308;2022-12-10T06:38:33;6.43;;;5.73;;
37657;SDS011;23500;53.268;8.308;2022-12-10T06:41:00;6.60;;;5.90;;
37657;SDS011;23500;53.268;8.308;2022-12-10T06:43:28;6.83;;;6.17;;
37657;SDS011;23500;53.268;8.308;2022-12-10T06:45:54;6.43;;;5.80;;
37657;SDS011;23500;53.268;8.308;2022-12-10T06:48:20;6.80;;;6.07;;
37657;SDS011;23500;53.268;8.308;2022-12-10T06:50:45;6.87;;;5.87;;
37657;SDS011;23500;53.268;8.308;2022-12-10T06:53:11;6.97;;;6.23;;
37657;SDS011;23500;53.268;8.308;2022-12-10T06:55:37;6.50;;;5.80;;
37657;SDS011;23500;53.268;8.308;2022-12-10T06:58:05;6.30;;;5.53;;
37657;SDS011;23500;53.268;8.308;2022-12-10T07:00:31;7.33;;;6.53;;
37657;SDS011;23500;53.268;8.308;2022-12-10T07:02:57;6.97;;;6.27;;
37657;SDS011;23500;53.268;8.308;2022-12-10T07:05:23;5.80;;;5.20;;
37657;SDS011;23500;53.268;8.308;2022-12-10T07:07:48;6.43;;;5.80;;
37657;SDS011;23500;53.268;8.308;2022-12-10T07:10:14;6.40;;;5.80;;
37657;SDS011;23500;53.268;8.308;2022-12-10T07:12:40;6.13;;;5.53;;
37657;SDS011;23500;53.268;8.308;2022-12-10T07:15:05;6.27;;;5.67;;
37657;SDS011;23500;53.268;8.308;2022-12-10T07:17:32;5.80;;;5.30;;
37657;SDS011;23500;53.268;8.308;2022-12-10T07:19:57;6.00;;;5.40;;
37657;SDS011;23500;53.268;8.308;2022-12-10T07:22:23;6.37;;;5.77;;
37657;SDS011;23500;53.268;8.308;2022-12-10T07:24:48;5.87;;;5.27;;
37657;SDS011;23500;53.268;8.308;2022-12-10T07:27:15;6.50;;;5.73;;
37657;SDS011;23500;53.268;8.308;2022-12-10T07:29:41;6.20;;;5.60;;
37657;SDS011;23500;53.268;8.308;2022-12-10T07:32:06;6.77;;;6.10;;
37657;SDS011;23500;53.268;8.308;2022-12-10T07:34:32;6.90;;;6.20;;
37657;SDS011;23500;53.268;8.308;2022-12-10T07:36:58;6.63;;;5.93;;
37657;SDS011;23500;53.268;8.308;2022-12-10T07:39:23;6.30;;;5.70;;
37657;SDS011;23500;53.268;8.308;2022-12-10T07:41:49;7.27;;;6.57;;
37657;SDS011;23500;53.268;8.308;2022-12-10T07:44:17;6.77;;;6.17;;
37657;SDS011;23500;53.268;8.308;2022-12-10T07:46:50;7.17;;;6.47;;
37657;SDS011;23500;53.268;8.308;2022-12-10T07:49:16;7.23;;;6.53;;
37657;SDS011;23500;53.268;8.308;2022-12-10T07:51:46;8.23;;;7.27;;
37657;SDS011;23500;53.268;8.308;2022-12-10T07:54:13;7.20;;;6.50;;
37657;SDS011;23500;53.268;8.308;2022-12-10T07:56:40;7.40;;;6.67;;
37657;SDS011;23500;53.268;8.308;2022-12-10T07:59:05;7.37;;;6.67;;
37657;SDS011;23500;53.268;8.308;2022-12-10T08:01:31;7.50;;;6.70;;
37657;SDS011;23500;53.268;8.308;2022-12-10T08:03:57;7.50;;;6.80;;
37657;SDS011;23500;53.268;8.308;2022-12-10T08:06:23;8.33;;;6.80;;
37657;SDS011;23500;53.268;8.308;2022-12-10T08:08:51;7.23;;;6.53;;
37657;SDS011;23500;53.268;8.308;2022-12-10T08:11:17;7.70;;;6.87;;
37657;SDS011;23500;53.268;8.308;2022-12-10T08:13:44;8.70;;;6.93;;
37657;SDS011;23500;53.268;8.308;2022-12-10T08:16:12;7.40;;;6.47;;
37657;SDS011;23500;53.268;8.308;2022-12-10T08:18:40;7.70;;;6.90;;
37657;SDS011;23500;53.268;8.308;2022-12-10T08:21:25;6.37;;;5.77;;
37657;SDS011;23500;53.268;8.308;2022-12-10T08:23:53;7.03;;;6.33;;
37657;SDS011;23500;53.268;8.308;2022-12-10T08:26:20;6.93;;;6.23;;
37657;SDS011;23500;53.268;8.308;2022-12-10T08:28:49;7.67;;;6.67;;
37657;SDS011;23500;53.268;8.308;2022-12-10T08:31:16;7.50;;;6.73;;
37657;SDS011;23500;53.268;8.308;2022-12-10T08:33:43;7.63;;;6.70;;
37657;SDS011;23500;53.268;8.308;2022-12-10T08:36:10;7.47;;;6.60;;
37657;SDS011;23500;53.268;8.308;2022-12-10T08:38:37;8.10;;;7.20;;
37657;SDS011;23500;53.268;8.308;2022-12-10T08:41:07;7.77;;;7.00;;
37657;SDS011;23500;53.268;8.308;2022-12-10T08:43:34;7.27;;;6.50;;
37657;SDS011;23500;53.268;8.308;2022-12-10T08:46:00;7.73;;;6.90;;
37657;SDS011;23500;53.268;8.308;2022-12-10T08:48:26;7.40;;;6.70;;
37657;SDS011;23500;53.268;8.308;2022-12-10T08:50:52;7.93;;;7.13;;
37657;SDS011;23500;53.268;8.308;2022-12-10T08:53:17;8.07;;;7.23;;
37657;SDS011;23500;53.268;8.308;2022-12-10T08:55:43;7.60;;;6.80;;
37657;SDS011;23500;53.268;8.308;2022-12-10T08:58:09;7.67;;;6.93;;
37657;SDS011;23500;53.268;8.308;2022-12-10T09:00:35;8.10;;;7.23;;
37657;SDS011;23500;53.268;8.308;2022-12-10T09:03:02;8.50;;;7.10;;
37657;SDS011;23500;53.268;8.308;2022-12-10T09:05:28;8.17;;;7.37;;
37657;SDS011;23500;53.268;8.308;2022-12-10T09:07:54;8.00;;;7.20;;
37657;SDS011;23500;53.268;8.308;2022-12-10T09:10:20;7.00;;;6.30;;
37657;SDS011;23500;53.268;8.308;2022-12-10T09:12:46;6.83;;;6.13;;
37657;SDS011;23500;53.268;8.308;2022-12-10T09:15:12;7.23;;;6.53;;
37657;SDS011;23500;53.268;8.308;2022-12-10T09:17:38;8.03;;;7.23;;
37657;SDS011;23500;53.268;8.308;2022-12-10T09:20:04;6.37;;;5.73;;
37657;SDS011;23500;53.268;8.308;2022-12-10T09:22:30;7.20;;;6.50;;
37657;SDS011;23500;53.268;8.308;2022-12-10T09:24:56;6.73;;;6.03;;
37657;SDS011;23500;53.268;8.308;2022-12-10T09:27:22;7.30;;;6.00;;
37657;SDS011;23500;53.268;8.308;2022-12-10T09:29:50;6.53;;;5.83;;
37657;SDS011;23500;53.268;8.308;2022-12-10T09:32:16;7.43;;;6.00;;
37657;SDS011;23500;53.268;8.308;2022-12-10T09:34:41;6.57;;;5.97;;
37657;SDS011;23500;53.268;8.308;2022-12-10T09:37:07;6.90;;;6.20;;
37657;SDS011;23500;53.268;8.308;2022-12-10T09:39:32;6.93;;;6.23;;
37657;SDS011;23500;53.268;8.308;2022-12-10T09:48:41;6.83;;;6.17;;
37657;SDS011;23500;53.268;8.308;2022-12-10T09:53:32;7.17;;;6.47;;
37657;SDS011;23500;53.268;8.308;2022-12-10T09:55:59;6.93;;;5.90;;
37657;SDS011;23500;53.268;8.308;2022-12-10T09:58:26;6.50;;;5.90;;
37657;SDS011;23500;53.268;8.308;2022-12-10T10:01:05;6.37;;;5.77;;
37657;SDS011;23500;53.268;8.308;2022-12-10T10:03:31;7.27;;;6.50;;
37657;SDS011;23500;53.268;8.308;2022-12-10T10:06:03;6.50;;;5.80;;
37657;SDS011;23500;53.268;8.308;2022-12-10T10:08:34;6.87;;;6.17;;
37657;SDS011;23500;53.268;8.308;2022-12-10T10:11:04;6.93;;;6.03;;
37657;SDS011;23500;53.268;8.308;2022-12-10T10:16:22;6.73;;;6.07;;
37657;SDS011;23500;53.268;8.308;2022-12-10T10:21:27;6.93;;;6.23;;
37657;SDS011;23500;53.268;8.308;2022-12-10T10:24:02;6.03;;;5.43;;
37657;SDS011;23500;53.268;8.308;2022-12-10T10:26:29;5.73;;;5.13;;
37657;SDS011;23500;53.268;8.308;2022-12-10T10:29:16;6.50;;;5.90;;
37657;SDS011;23500;53.268;8.308;2022-12-10T10:31:42;5.77;;;5.27;;
37657;SDS011;23500;53.268;8.308;2022-12-10T10:36:47;5.77;;;5.27;;
37657;SDS011;23500;53.268;8.308;2022-12-10T10:39:28;6.27;;;5.63;;
37657;SDS011;23500;53.268;8.308;2022-12-10T10:41:56;6.23;;;5.60;;
37657;SDS011;23500;53.268;8.308;2022-12-10T10:44:25;6.07;;;5.47;;
37657;SDS011;23500;53.268;8.308;2022-12-10T10:46:58;6.53;;;5.83;;
37657;SDS011;23500;53.268;8.308;2022-12-10T10:49:25;5.40;;;4.90;;
37657;SDS011;23500;53.268;8.308;2022-12-10T10:51:53;6.33;;;5.73;;
37657;SDS011;23500;53.268;8.308;2022-12-10T10:54:35;6.10;;;5.60;;
37657;SDS011;23500;53.268;8.308;2022-12-10T10:57:10;6.47;;;5.87;;
37657;SDS011;23500;53.268;8.308;2022-12-10T10:59:40;6.10;;;5.50;;
37657;SDS011;23500;53.268;8.308;2022-12-10T11:04:52;6.37;;;5.77;;
37657;SDS011;23500;53.268;8.308;2022-12-10T11:10:16;6.50;;;5.73;;
37657;SDS011;23500;53.268;8.308;2022-12-10T11:12:44;6.00;;;5.40;;
37657;SDS011;23500;53.268;8.308;2022-12-10T11:17:50;5.90;;;5.30;;
37657;SDS011;23500;53.268;8.308;2022-12-10T11:20:21;7.23;;;5.83;;
37657;SDS011;23500;53.268;8.308;2022-12-10T11:22:53;6.27;;;5.57;;
37657;SDS011;23500;53.268;8.308;2022-12-10T11:25:27;6.37;;;5.77;;
37657;SDS011;23500;53.268;8.308;2022-12-10T11:41:44;6.20;;;5.60;;
37657;SDS011;23500;53.268;8.308;2022-12-10T12:00:47;8.03;;;6.30;;
37657;SDS011;23500;53.268;8.308;2022-12-10T12:03:24;6.67;;;6.07;;
37657;SDS011;23500;53.268;8.308;2022-12-10T12:09:15;6.00;;;5.40;;
37657;SDS011;23500;53.268;8.308;2022-12-10T12:14:33;6.47;;;5.87;;
37657;SDS011;23500;53.268;8.308;2022-12-10T12:19:37;6.33;;;5.73;;
37657;SDS011;23500;53.268;8.308;2022-12-10T12:22:25;6.47;;;5.87;;
37657;SDS011;23500;53.268;8.308;2022-12-10T12:24:58;6.17;;;5.57;;
37657;SDS011;23500;53.268;8.308;2022-12-10T12:27:32;5.77;;;5.27;;
37657;SDS011;23500;53.268;8.308;2022-12-10T12:30:17;6.40;;;5.80;;
37657;SDS011;23500;53.268;8.308;2022-12-10T12:35:48;6.20;;;5.60;;
37657;SDS011;23500;53.268;8.308;2022-12-10T12:43:55;6.23;;;5.60;;
37657;SDS011;23500;53.268;8.308;2022-12-10T12:46:37;7.13;;;6.43;;
37657;SDS011;23500;53.268;8.308;2022-12-10T12:54:43;6.27;;;5.67;;
37657;SDS011;23500;53.268;8.308;2022-12-10T13:05:37;6.57;;;5.83;;
37657;SDS011;23500;53.268;8.308;2022-12-10T13:10:54;6.60;;;6.00;;
37657;SDS011;23500;53.268;8.308;2022-12-10T13:15:53;7.00;;;6.00;;
37657;SDS011;23500;53.268;8.308;2022-12-10T13:18:20;7.17;;;6.50;;
37657;SDS011;23500;53.268;8.308;2022-12-10T13:23:54;6.87;;;6.03;;
37657;SDS011;23500;53.268;8.308;2022-12-10T13:26:34;6.40;;;5.80;;
37657;SDS011;23500;53.268;8.308;2022-12-10T13:29:22;6.70;;;5.50;;
37657;SDS011;23500;53.268;8.308;2022-12-10T13:32:24;7.17;;;6.30;;
37657;SDS011;23500;53.268;8.308;2022-12-10T13:34:46;7.13;;;6.00;;
37657;SDS011;23500;53.268;8.308;2022-12-10T13:42:50;6.90;;;6.20;;
37657;SDS011;23500;53.268;8.308;2022-12-10T13:45:40;6.70;;;6.00;;
37657;SDS011;23500;53.268;8.308;2022-12-10T13:48:17;6.50;;;5.87;;
37657;SDS011;23500;53.268;8.308;2022-12-10T13:53:49;8.80;;;6.63;;
37657;SDS011;23500;53.268;8.308;2022-12-10T14:01:50;6.50;;;5.90;;
37657;SDS011;23500;53.268;8.308;2022-12-10T14:07:15;7.10;;;6.40;;
37657;SDS011;23500;53.268;8.308;2022-12-10T14:09:46;7.57;;;6.30;;
37657;SDS011;23500;53.268;8.308;2022-12-10T14:12:21;7.20;;;6.50;;
37657;SDS011;23500;53.268;8.308;2022-12-10T14:15:01;7.10;;;6.37;;
37657;SDS011;23500;53.268;8.308;2022-12-10T14:17:40;7.73;;;6.93;;
37657;SDS011;23500;53.268;8.308;2022-12-10T14:20:07;6.53;;;5.63;;
37657;SDS011;23500;53.268;8.308;2022-12-10T14:22:45;7.43;;;6.60;;
37657;SDS011;23500;53.268;8.308;2022-12-10T14:25:14;7.07;;;6.37;;
37657;SDS011;23500;53.268;8.308;2022-12-10T14:27:46;6.73;;;6.03;;
37657;SDS011;23500;53.268;8.308;2022-12-10T14:32:47;8.37;;;6.67;;
37657;SDS011;23500;53.268;8.308;2022-12-10T14:35:21;7.37;;;6.43;;
37657;SDS011;23500;53.268;8.308;2022-12-10T14:37:49;6.77;;;6.10;;
37657;SDS011;23500;53.268;8.308;2022-12-10T14:40:24;6.73;;;6.13;;
37657;SDS011;23500;53.268;8.308;2022-12-10T14:43:03;7.00;;;6.10;;
37657;SDS011;23500;53.268;8.308;2022-12-10T14:45:35;7.53;;;6.70;;
37657;SDS011;23500;53.268;8.308;2022-12-10T14:48:12;6.73;;;6.13;;
37657;SDS011;23500;53.268;8.308;2022-12-10T14:50:41;6.73;;;6.03;;
37657;SDS011;23500;53.268;8.308;2022-12-10T14:53:11;6.27;;;5.67;;
37657;SDS011;23500;53.268;8.308;2022-12-10T14:55:44;8.33;;;6.50;;
37657;SDS011;23500;53.268;8.308;2022-12-10T14:58:15;7.20;;;6.50;;
37657;SDS011;23500;53.268;8.308;2022-12-10T15:00:55;7.47;;;6.70;;
37657;SDS011;23500;53.268;8.308;2022-12-10T15:03:26;6.70;;;6.00;;
37657;SDS011;23500;53.268;8.308;2022-12-10T15:06:05;7.80;;;6.60;;
37657;SDS011;23500;53.268;8.308;2022-12-10T15:08:33;7.97;;;6.77;;
37657;SDS011;23500;53.268;8.308;2022-12-10T15:11:00;7.83;;;7.00;;
37657;SDS011;23500;53.268;8.308;2022-12-10T15:16:13;7.47;;;6.63;;
37657;SDS011;23500;53.268;8.308;2022-12-10T15:18:45;7.27;;;6.47;;
37657;SDS011;23500;53.268;8.308;2022-12-10T15:21:15;8.30;;;7.00;;
37657;SDS011;23500;53.268;8.308;2022-12-10T15:23:45;8.00;;;6.93;;
37657;SDS011;23500;53.268;8.308;2022-12-10T15:26:21;8.70;;;6.87;;
37657;SDS011;23500;53.268;8.308;2022-12-10T15:28:52;8.27;;;7.03;;
37657;SDS011;23500;53.268;8.308;2022-12-10T15:31:38;8.67;;;7.27;;
37657;SDS011;23500;53.268;8.308;2022-12-10T15:34:09;8.13;;;6.50;;
37657;SDS011;23500;53.268;8.308;2022-12-10T15:36:42;6.83;;;6.20;;
37657;SDS011;23500;53.268;8.308;2022-12-10T15:39:24;7.70;;;6.90;;
37657;SDS011;23500;53.268;8.308;2022-12-10T15:41:53;7.93;;;6.70;;
37657;SDS011;23500;53.268;8.308;2022-12-10T15:47:37;7.70;;;6.27;;
37657;SDS011;23500;53.268;8.308;2022-12-10T15:49:46;7.23;;;5.90;;
37657;SDS011;23500;53.268;8.308;2022-12-10T15:52:13;7.13;;;6.43;;
37657;SDS011;23500;53.268;8.308;2022-12-10T15:54:41;7.87;;;6.30;;
37657;SDS011;23500;53.268;8.308;2022-12-10T15:57:12;8.10;;;6.83;;
37657;SDS011;23500;53.268;8.308;2022-12-10T15:59:39;7.33;;;6.63;;
37657;SDS011;23500;53.268;8.308;2022-12-10T16:02:39;8.17;;;6.40;;
37657;SDS011;23500;53.268;8.308;2022-12-10T16:07:50;8.03;;;6.80;;
37657;SDS011;23500;53.268;8.308;2022-12-10T16:10:19;8.30;;;6.77;;
37657;SDS011;23500;53.268;8.308;2022-12-10T16:12:47;7.40;;;6.70;;
37657;SDS011;23500;53.268;8.308;2022-12-10T16:15:20;7.07;;;6.37;;
37657;SDS011;23500;53.268;8.308;2022-12-10T16:17:47;7.47;;;6.67;;
37657;SDS011;23500;53.268;8.308;2022-12-10T16:20:17;7.77;;;6.73;;
37657;SDS011;23500;53.268;8.308;2022-12-10T16:22:54;7.97;;;7.17;;
37657;SDS011;23500;53.268;8.308;2022-12-10T16:25:21;7.47;;;6.63;;
37657;SDS011;23500;53.268;8.308;2022-12-10T16:27:48;7.53;;;6.60;;
37657;SDS011;23500;53.268;8.308;2022-12-10T16:30:19;6.77;;;6.07;;
37657;SDS011;23500;53.268;8.308;2022-12-10T16:32:46;8.10;;;6.97;;
37657;SDS011;23500;53.268;8.308;2022-12-10T16:35:13;7.00;;;6.30;;
37657;SDS011;23500;53.268;8.308;2022-12-10T16:37:41;7.30;;;6.53;;
37657;SDS011;23500;53.268;8.308;2022-12-10T16:40:08;8.20;;;6.30;;
37657;SDS011;23500;53.268;8.308;2022-12-10T16:42:34;6.43;;;5.80;;
37657;SDS011;23500;53.268;8.308;2022-12-10T16:45:00;6.80;;;6.10;;
37657;SDS011;23500;53.268;8.308;2022-12-10T16:47:26;7.73;;;6.30;;
37657;SDS011;23500;53.268;8.308;2022-12-10T16:49:51;6.93;;;6.23;;
37657;SDS011;23500;53.268;8.308;2022-12-10T16:52:17;7.87;;;6.67;;
37657;SDS011;23500;53.268;8.308;2022-12-10T16:54:43;8.23;;;6.50;;
37657;SDS011;23500;53.268;8.308;2022-12-10T16:57:12;7.07;;;6.30;;
37657;SDS011;23500;53.268;8.308;2022-12-10T16:59:39;9.30;;;6.73;;
37657;SDS011;23500;53.268;8.308;2022-12-10T17:02:10;7.77;;;6.93;;
37657;SDS011;23500;53.268;8.308;2022-12-10T17:04:42;7.47;;;6.67;;
37657;SDS011;23500;53.268;8.308;2022-12-10T17:07:09;7.37;;;6.63;;
37657;SDS011;23500;53.268;8.308;2022-12-10T17:09:35;7.40;;;6.70;;
37657;SDS011;23500;53.268;8.308;2022-12-10T17:12:01;7.40;;;6.70;;
37657;SDS011;23500;53.268;8.308;2022-12-10T17:14:29;7.30;;;6.47;;
37657;SDS011;23500;53.268;8.308;2022-12-10T17:16:57;7.30;;;6.60;;
37657;SDS011;23500;53.268;8.308;2022-12-10T17:19:28;7.27;;;6.47;;
37657;SDS011;23500;53.268;8.308;2022-12-10T17:21:58;7.17;;;6.47;;
37657;SDS011;23500;53.268;8.308;2022-12-10T17:24:24;7.53;;;6.57;;
37657;SDS011;23500;53.268;8.308;2022-12-10T17:26:50;9.57;;;6.93;;